sensor_id;sensor_type;location;lat;lon;timestamp;temperature;humidity
27016;DHT22;14557;0.000;0.000;2022-09-09T00:02:22;23.10;71.00
27016;DHT22;14557;0.000;0.000;2022-09-09T00:04:58;23.10;71.20
27016;DHT22;14557;0.000;0.000;2022-09-09T00:18:44;23.00;71.50
27016;DHT22;14557;0.000;0.000;2022-09-09T00:21:16;23.00;71.20
27016;DHT22;14557;0.000;0.000;2022-09-09T00:24:13;23.00;71.20
27016;DHT22;14557;0.000;0.000;2022-09-09T00:26:48;23.00;71.20
27016;DHT22;14557;0.000;0.000;2022-09-09T00:29:43;23.00;71.20
27016;DHT22;14557;0.000;0.000;2022-09-09T00:32:18;23.00;71.20
27016;DHT22;14557;0.000;0.000;2022-09-09T00:34:53;23.00;71.20
27016;DHT22;14557;0.000;0.000;2022-09-09T00:37:22;23.00;70.80
27016;DHT22;14557;0.000;0.000;2022-09-09T00:39:52;22.90;70.70
27016;DHT22;14557;0.000;0.000;2022-09-09T00:42:26;22.90;70.60
27016;DHT22;14557;0.000;0.000;2022-09-09T00:45:15;23.00;70.80
27016;DHT22;14557;0.000;0.000;2022-09-09T00:47:54;22.90;70.60
27016;DHT22;14557;0.000;0.000;2022-09-09T00:53:22;22.90;70.90
27016;DHT22;14557;0.000;0.000;2022-09-09T00:56:12;22.90;70.80
27016;DHT22;14557;0.000;0.000;2022-09-09T00:58:43;22.90;70.60
27016;DHT22;14557;0.000;0.000;2022-09-09T01:01:12;22.90;70.90
27016;DHT22;14557;0.000;0.000;2022-09-09T01:03:54;22.80;70.50
27016;DHT22;14557;0.000;0.000;2022-09-09T01:06:33;22.80;70.20
27016;DHT22;14557;0.000;0.000;2022-09-09T01:16:59;22.80;70.80
27016;DHT22;14557;0.000;0.000;2022-09-09T01:20:06;22.80;71.10
27016;DHT22;14557;0.000;0.000;2022-09-09T01:22:42;22.80;71.20
27016;DHT22;14557;0.000;0.000;2022-09-09T01:28:18;22.70;71.50
27016;DHT22;14557;0.000;0.000;2022-09-09T01:30:45;22.70;71.50
27016;DHT22;14557;0.000;0.000;2022-09-09T01:33:16;22.70;71.60
27016;DHT22;14557;0.000;0.000;2022-09-09T01:35:59;22.70;71.70
27016;DHT22;14557;0.000;0.000;2022-09-09T01:38:28;22.70;71.80
27016;DHT22;14557;0.000;0.000;2022-09-09T01:40:55;22.70;71.80
27016;DHT22;14557;0.000;0.000;2022-09-09T01:43:21;22.70;71.60
27016;DHT22;14557;0.000;0.000;2022-09-09T01:45:50;22.60;71.80
27016;DHT22;14557;0.000;0.000;2022-09-09T01:48:18;22.70;71.70
27016;DHT22;14557;0.000;0.000;2022-09-09T01:50:44;22.60;71.60
27016;DHT22;14557;0.000;0.000;2022-09-09T01:53:11;22.60;71.60
27016;DHT22;14557;0.000;0.000;2022-09-09T01:55:39;22.60;71.60
27016;DHT22;14557;0.000;0.000;2022-09-09T01:58:20;22.60;71.60
27016;DHT22;14557;0.000;0.000;2022-09-09T02:01:12;22.60;71.60
27016;DHT22;14557;0.000;0.000;2022-09-09T02:03:47;22.60;71.60
27016;DHT22;14557;0.000;0.000;2022-09-09T02:06:29;22.60;71.30
27016;DHT22;14557;0.000;0.000;2022-09-09T02:08:57;22.60;71.50
27016;DHT22;14557;0.000;0.000;2022-09-09T02:11:27;22.60;71.20
27016;DHT22;14557;0.000;0.000;2022-09-09T02:14:00;22.60;71.10
27016;DHT22;14557;0.000;0.000;2022-09-09T02:16:42;22.60;71.10
27016;DHT22;14557;0.000;0.000;2022-09-09T02:19:22;22.50;71.30
27016;DHT22;14557;0.000;0.000;2022-09-09T02:21:53;22.50;71.40
27016;DHT22;14557;0.000;0.000;2022-09-09T02:24:20;22.50;71.30
27016;DHT22;14557;0.000;0.000;2022-09-09T02:26:49;22.50;71.30
27016;DHT22;14557;0.000;0.000;2022-09-09T02:29:30;22.50;71.20
27016;DHT22;14557;0.000;0.000;2022-09-09T02:32:00;22.50;71.00
27016;DHT22;14557;0.000;0.000;2022-09-09T02:34:30;22.50;71.50
27016;DHT22;14557;0.000;0.000;2022-09-09T02:36:57;22.50;71.70
27016;DHT22;14557;0.000;0.000;2022-09-09T02:39:25;22.50;71.80
27016;DHT22;14557;0.000;0.000;2022-09-09T02:41:51;22.50;71.70
27016;DHT22;14557;0.000;0.000;2022-09-09T02:44:17;22.50;71.70
27016;DHT22;14557;0.000;0.000;2022-09-09T02:49:19;22.40;71.80
27016;DHT22;14557;0.000;0.000;2022-09-09T02:52:08;22.40;71.70
27016;DHT22;14557;0.000;0.000;2022-09-09T02:54:37;22.40;71.90
27016;DHT22;14557;0.000;0.000;2022-09-09T02:59:36;22.40;71.90
27016;DHT22;14557;0.000;0.000;2022-09-09T03:02:02;22.40;71.80
27016;DHT22;14557;0.000;0.000;2022-09-09T03:04:28;22.40;71.70
27016;DHT22;14557;0.000;0.000;2022-09-09T03:06:55;22.40;71.70
27016;DHT22;14557;0.000;0.000;2022-09-09T03:09:21;22.40;71.60
27016;DHT22;14557;0.000;0.000;2022-09-09T03:11:46;22.40;71.50
27016;DHT22;14557;0.000;0.000;2022-09-09T03:14:12;22.40;71.60
27016;DHT22;14557;0.000;0.000;2022-09-09T03:16:38;22.40;71.70
27016;DHT22;14557;0.000;0.000;2022-09-09T03:19:04;22.40;71.60
27016;DHT22;14557;0.000;0.000;2022-09-09T03:21:29;22.30;72.40
27016;DHT22;14557;0.000;0.000;2022-09-09T03:23:55;22.30;71.70
27016;DHT22;14557;0.000;0.000;2022-09-09T03:26:22;22.30;71.70
27016;DHT22;14557;0.000;0.000;2022-09-09T03:28:48;22.40;71.70
27016;DHT22;14557;0.000;0.000;2022-09-09T03:31:15;22.30;71.60
27016;DHT22;14557;0.000;0.000;2022-09-09T03:33:41;22.30;71.70
27016;DHT22;14557;0.000;0.000;2022-09-09T03:36:07;22.30;71.60
27016;DHT22;14557;0.000;0.000;2022-09-09T03:38:34;22.30;71.60
27016;DHT22;14557;0.000;0.000;2022-09-09T03:41:00;22.30;71.60
27016;DHT22;14557;0.000;0.000;2022-09-09T03:43:27;22.30;71.80
27016;DHT22;14557;0.000;0.000;2022-09-09T03:45:54;22.30;71.90
27016;DHT22;14557;0.000;0.000;2022-09-09T03:48:22;22.30;72.00
27016;DHT22;14557;0.000;0.000;2022-09-09T03:50:50;22.30;72.00
27016;DHT22;14557;0.000;0.000;2022-09-09T03:53:17;22.30;72.10
27016;DHT22;14557;0.000;0.000;2022-09-09T03:55:56;22.20;72.20
27016;DHT22;14557;0.000;0.000;2022-09-09T03:58:25;22.20;72.30
27016;DHT22;14557;0.000;0.000;2022-09-09T04:01:01;22.20;72.10
27016;DHT22;14557;0.000;0.000;2022-09-09T04:03:27;22.20;72.30
27016;DHT22;14557;0.000;0.000;2022-09-09T04:05:55;22.20;72.20
27016;DHT22;14557;0.000;0.000;2022-09-09T04:08:21;22.20;72.20
27016;DHT22;14557;0.000;0.000;2022-09-09T04:10:48;22.20;72.20
27016;DHT22;14557;0.000;0.000;2022-09-09T04:13:15;22.20;72.00
27016;DHT22;14557;0.000;0.000;2022-09-09T04:15:52;22.20;72.10
27016;DHT22;14557;0.000;0.000;2022-09-09T04:18:19;22.20;72.10
27016;DHT22;14557;0.000;0.000;2022-09-09T04:20:48;22.20;72.10
27016;DHT22;14557;0.000;0.000;2022-09-09T04:23:16;22.20;72.00
27016;DHT22;14557;0.000;0.000;2022-09-09T04:25:46;22.20;72.00
27016;DHT22;14557;0.000;0.000;2022-09-09T04:28:13;22.20;72.10
27016;DHT22;14557;0.000;0.000;2022-09-09T04:30:39;22.10;72.10
27016;DHT22;14557;0.000;0.000;2022-09-09T04:33:06;22.10;71.70
27016;DHT22;14557;0.000;0.000;2022-09-09T04:35:32;22.10;71.80
27016;DHT22;14557;0.000;0.000;2022-09-09T04:37:58;22.10;72.00
27016;DHT22;14557;0.000;0.000;2022-09-09T04:40:24;22.10;71.90
27016;DHT22;14557;0.000;0.000;2022-09-09T04:42:51;22.10;71.90
27016;DHT22;14557;0.000;0.000;2022-09-09T04:45:17;22.10;72.10
27016;DHT22;14557;0.000;0.000;2022-09-09T04:47:43;22.10;72.00
27016;DHT22;14557;0.000;0.000;2022-09-09T04:50:09;22.10;72.10
27016;DHT22;14557;0.000;0.000;2022-09-09T04:52:35;22.10;72.20
27016;DHT22;14557;0.000;0.000;2022-09-09T04:55:02;22.10;72.20
27016;DHT22;14557;0.000;0.000;2022-09-09T04:57:27;22.10;72.40
27016;DHT22;14557;0.000;0.000;2022-09-09T04:59:54;22.00;72.30
27016;DHT22;14557;0.000;0.000;2022-09-09T05:02:20;22.00;72.40
27016;DHT22;14557;0.000;0.000;2022-09-09T05:04:45;22.00;72.40
27016;DHT22;14557;0.000;0.000;2022-09-09T05:07:11;22.00;72.50
27016;DHT22;14557;0.000;0.000;2022-09-09T05:09:37;22.00;72.50
27016;DHT22;14557;0.000;0.000;2022-09-09T05:12:03;22.00;72.60
27016;DHT22;14557;0.000;0.000;2022-09-09T05:14:29;22.00;72.50
27016;DHT22;14557;0.000;0.000;2022-09-09T05:16:55;22.00;72.50
27016;DHT22;14557;0.000;0.000;2022-09-09T05:19:21;22.00;72.30
27016;DHT22;14557;0.000;0.000;2022-09-09T05:21:47;22.00;72.30
27016;DHT22;14557;0.000;0.000;2022-09-09T05:24:13;22.00;72.40
27016;DHT22;14557;0.000;0.000;2022-09-09T05:26:39;22.00;72.20
27016;DHT22;14557;0.000;0.000;2022-09-09T05:29:05;21.90;72.20
27016;DHT22;14557;0.000;0.000;2022-09-09T05:31:31;21.90;72.30
27016;DHT22;14557;0.000;0.000;2022-09-09T05:33:58;21.90;72.00
27016;DHT22;14557;0.000;0.000;2022-09-09T05:36:24;21.90;72.20
27016;DHT22;14557;0.000;0.000;2022-09-09T05:38:50;21.90;72.10
27016;DHT22;14557;0.000;0.000;2022-09-09T05:41:17;21.90;72.10
27016;DHT22;14557;0.000;0.000;2022-09-09T05:43:44;21.90;72.00
27016;DHT22;14557;0.000;0.000;2022-09-09T05:46:12;21.90;72.10
27016;DHT22;14557;0.000;0.000;2022-09-09T05:48:42;21.90;72.10
27016;DHT22;14557;0.000;0.000;2022-09-09T05:51:10;21.90;71.90
27016;DHT22;14557;0.000;0.000;2022-09-09T05:53:38;21.90;71.90
27016;DHT22;14557;0.000;0.000;2022-09-09T05:56:15;21.90;72.10
27016;DHT22;14557;0.000;0.000;2022-09-09T05:58:43;21.90;72.10
27016;DHT22;14557;0.000;0.000;2022-09-09T06:01:11;21.90;72.20
27016;DHT22;14557;0.000;0.000;2022-09-09T06:03:40;21.90;72.30
27016;DHT22;14557;0.000;0.000;2022-09-09T06:06:08;21.90;72.50
27016;DHT22;14557;0.000;0.000;2022-09-09T06:08:36;21.90;72.40
27016;DHT22;14557;0.000;0.000;2022-09-09T06:11:17;21.90;72.40
27016;DHT22;14557;0.000;0.000;2022-09-09T06:13:43;21.80;72.30
27016;DHT22;14557;0.000;0.000;2022-09-09T06:16:10;21.80;72.30
27016;DHT22;14557;0.000;0.000;2022-09-09T06:18:37;21.80;72.30
27016;DHT22;14557;0.000;0.000;2022-09-09T06:21:06;21.80;72.40
27016;DHT22;14557;0.000;0.000;2022-09-09T06:23:33;21.80;72.20
27016;DHT22;14557;0.000;0.000;2022-09-09T06:28:33;21.80;72.30
27016;DHT22;14557;0.000;0.000;2022-09-09T06:31:00;21.80;72.20
27016;DHT22;14557;0.000;0.000;2022-09-09T06:33:26;21.80;72.10
27016;DHT22;14557;0.000;0.000;2022-09-09T06:35:53;21.90;72.20
27016;DHT22;14557;0.000;0.000;2022-09-09T06:38:20;21.80;72.20
27016;DHT22;14557;0.000;0.000;2022-09-09T06:40:57;21.90;72.20
27016;DHT22;14557;0.000;0.000;2022-09-09T06:43:25;21.90;72.30
27016;DHT22;14557;0.000;0.000;2022-09-09T06:45:58;21.80;72.00
27016;DHT22;14557;0.000;0.000;2022-09-09T06:48:24;21.90;72.10
27016;DHT22;14557;0.000;0.000;2022-09-09T06:51:08;21.90;72.30
27016;DHT22;14557;0.000;0.000;2022-09-09T06:53:36;21.80;72.10
27016;DHT22;14557;0.000;0.000;2022-09-09T06:58:40;21.80;72.10
27016;DHT22;14557;0.000;0.000;2022-09-09T07:01:14;21.80;72.20
27016;DHT22;14557;0.000;0.000;2022-09-09T07:03:40;21.80;72.10
27016;DHT22;14557;0.000;0.000;2022-09-09T07:06:08;21.80;72.20
27016;DHT22;14557;0.000;0.000;2022-09-09T07:08:39;21.80;72.20
27016;DHT22;14557;0.000;0.000;2022-09-09T07:11:07;21.80;72.20
27016;DHT22;14557;0.000;0.000;2022-09-09T07:13:34;21.80;72.20
27016;DHT22;14557;0.000;0.000;2022-09-09T07:16:11;21.80;72.30
27016;DHT22;14557;0.000;0.000;2022-09-09T07:18:37;21.70;72.30
27016;DHT22;14557;0.000;0.000;2022-09-09T07:21:03;21.80;72.50
27016;DHT22;14557;0.000;0.000;2022-09-09T07:23:30;21.80;78.60
27016;DHT22;14557;0.000;0.000;2022-09-09T07:25:57;21.90;78.50
27016;DHT22;14557;0.000;0.000;2022-09-09T07:28:23;21.90;80.00
27016;DHT22;14557;0.000;0.000;2022-09-09T07:31:00;21.90;77.20
27016;DHT22;14557;0.000;0.000;2022-09-09T07:33:31;21.90;76.10
27016;DHT22;14557;0.000;0.000;2022-09-09T07:36:07;22.00;76.90
27016;DHT22;14557;0.000;0.000;2022-09-09T07:38:40;22.00;77.80
27016;DHT22;14557;0.000;0.000;2022-09-09T07:41:08;22.00;79.70
27016;DHT22;14557;0.000;0.000;2022-09-09T07:43:42;22.10;78.30
27016;DHT22;14557;0.000;0.000;2022-09-09T07:46:09;22.10;78.30
27016;DHT22;14557;0.000;0.000;2022-09-09T07:48:36;22.10;78.40
27016;DHT22;14557;0.000;0.000;2022-09-09T07:51:05;22.20;78.50
27016;DHT22;14557;0.000;0.000;2022-09-09T07:53:32;22.20;77.60
27016;DHT22;14557;0.000;0.000;2022-09-09T07:56:10;22.20;76.60
27016;DHT22;14557;0.000;0.000;2022-09-09T07:58:37;22.10;76.00
27016;DHT22;14557;0.000;0.000;2022-09-09T08:01:12;22.20;75.80
27016;DHT22;14557;0.000;0.000;2022-09-09T08:03:39;22.10;76.60
27016;DHT22;14557;0.000;0.000;2022-09-09T08:06:07;22.10;77.70
27016;DHT22;14557;0.000;0.000;2022-09-09T08:08:34;22.20;76.30
27016;DHT22;14557;0.000;0.000;2022-09-09T08:11:12;22.20;76.10
27016;DHT22;14557;0.000;0.000;2022-09-09T08:13:39;22.20;74.90
27016;DHT22;14557;0.000;0.000;2022-09-09T08:18:39;22.10;74.70
27016;DHT22;14557;0.000;0.000;2022-09-09T08:21:13;22.10;74.40
27016;DHT22;14557;0.000;0.000;2022-09-09T08:23:41;22.10;74.00
27016;DHT22;14557;0.000;0.000;2022-09-09T08:26:12;22.10;74.20
27016;DHT22;14557;0.000;0.000;2022-09-09T08:28:39;22.10;74.10
27016;DHT22;14557;0.000;0.000;2022-09-09T08:31:16;22.10;74.00
27016;DHT22;14557;0.000;0.000;2022-09-09T08:33:43;22.10;74.30
27016;DHT22;14557;0.000;0.000;2022-09-09T08:36:14;22.20;75.30
27016;DHT22;14557;0.000;0.000;2022-09-09T08:38:43;22.10;74.20
27016;DHT22;14557;0.000;0.000;2022-09-09T08:44:37;22.10;74.30
27016;DHT22;14557;0.000;0.000;2022-09-09T08:52:21;22.20;73.90
27016;DHT22;14557;0.000;0.000;2022-09-09T08:54:47;22.10;74.20
27016;DHT22;14557;0.000;0.000;2022-09-09T08:57:23;22.20;74.70
27016;DHT22;14557;0.000;0.000;2022-09-09T08:59:53;22.30;74.50
27016;DHT22;14557;0.000;0.000;2022-09-09T09:02:37;22.30;74.20
27016;DHT22;14557;0.000;0.000;2022-09-09T09:05:08;22.40;74.00
27016;DHT22;14557;0.000;0.000;2022-09-09T09:10:29;22.40;73.90
27016;DHT22;14557;0.000;0.000;2022-09-09T09:12:59;22.40;73.90
27016;DHT22;14557;0.000;0.000;2022-09-09T09:15:36;22.40;73.80
27016;DHT22;14557;0.000;0.000;2022-09-09T09:18:04;22.40;73.60
27016;DHT22;14557;0.000;0.000;2022-09-09T09:20:50;22.40;73.70
27016;DHT22;14557;0.000;0.000;2022-09-09T09:23:23;22.40;73.60
27016;DHT22;14557;0.000;0.000;2022-09-09T09:25:52;22.40;73.40
27016;DHT22;14557;0.000;0.000;2022-09-09T09:28:27;22.30;73.20
27016;DHT22;14557;0.000;0.000;2022-09-09T09:30:55;22.30;73.30
27016;DHT22;14557;0.000;0.000;2022-09-09T09:36:08;22.30;73.10
27016;DHT22;14557;0.000;0.000;2022-09-09T09:38:35;22.30;73.00
27016;DHT22;14557;0.000;0.000;2022-09-09T09:41:01;22.30;73.00
27016;DHT22;14557;0.000;0.000;2022-09-09T09:43:28;22.40;72.90
27016;DHT22;14557;0.000;0.000;2022-09-09T09:45:54;22.40;73.00
27016;DHT22;14557;0.000;0.000;2022-09-09T09:48:20;22.40;73.00
27016;DHT22;14557;0.000;0.000;2022-09-09T09:50:53;22.40;72.50
27016;DHT22;14557;0.000;0.000;2022-09-09T09:53:24;22.50;72.00
27016;DHT22;14557;0.000;0.000;2022-09-09T09:56:11;22.50;71.70
27016;DHT22;14557;0.000;0.000;2022-09-09T10:01:29;22.50;71.30
27016;DHT22;14557;0.000;0.000;2022-09-09T10:04:17;22.60;71.20
27016;DHT22;14557;0.000;0.000;2022-09-09T10:06:44;22.60;71.00
27016;DHT22;14557;0.000;0.000;2022-09-09T10:09:29;22.70;70.90
27016;DHT22;14557;0.000;0.000;2022-09-09T10:14:42;22.70;70.30
27016;DHT22;14557;0.000;0.000;2022-09-09T10:17:27;22.70;70.40
27016;DHT22;14557;0.000;0.000;2022-09-09T10:22:28;22.70;70.20
27016;DHT22;14557;0.000;0.000;2022-09-09T10:26:09;22.70;70.00
27016;DHT22;14557;0.000;0.000;2022-09-09T10:40:33;22.70;69.80
27016;DHT22;14557;0.000;0.000;2022-09-09T10:43:12;22.70;69.80
27016;DHT22;14557;0.000;0.000;2022-09-09T10:51:59;22.70;69.90
27016;DHT22;14557;0.000;0.000;2022-09-09T10:54:38;22.70;69.40
27016;DHT22;14557;0.000;0.000;2022-09-09T10:57:16;22.70;69.50
27016;DHT22;14557;0.000;0.000;2022-09-09T10:59:51;22.70;69.50
27016;DHT22;14557;0.000;0.000;2022-09-09T11:02:27;22.70;69.50
27016;DHT22;14557;0.000;0.000;2022-09-09T11:04:57;22.70;69.30
27016;DHT22;14557;0.000;0.000;2022-09-09T11:07:40;22.70;69.20
27016;DHT22;14557;0.000;0.000;2022-09-09T11:13:14;22.80;69.20
27016;DHT22;14557;0.000;0.000;2022-09-09T11:15:51;22.80;69.10
27016;DHT22;14557;0.000;0.000;2022-09-09T11:18:20;22.80;69.10
27016;DHT22;14557;0.000;0.000;2022-09-09T11:21:09;22.80;69.00
27016;DHT22;14557;0.000;0.000;2022-09-09T11:23:43;22.80;68.80
27016;DHT22;14557;0.000;0.000;2022-09-09T11:26:18;22.80;68.90
27016;DHT22;14557;0.000;0.000;2022-09-09T11:34:56;22.80;68.70
27016;DHT22;14557;0.000;0.000;2022-09-09T11:40:09;22.80;68.50
27016;DHT22;14557;0.000;0.000;2022-09-09T11:42:39;22.80;68.20
27016;DHT22;14557;0.000;0.000;2022-09-09T11:45:11;22.80;68.20
27016;DHT22;14557;0.000;0.000;2022-09-09T11:47:58;22.80;68.20
27016;DHT22;14557;0.000;0.000;2022-09-09T11:50:27;22.90;68.60
27016;DHT22;14557;0.000;0.000;2022-09-09T11:55:32;22.90;68.70
27016;DHT22;14557;0.000;0.000;2022-09-09T11:58:03;22.80;68.70
27016;DHT22;14557;0.000;0.000;2022-09-09T12:00:44;22.90;68.60
27016;DHT22;14557;0.000;0.000;2022-09-09T12:05:58;22.80;68.80
27016;DHT22;14557;0.000;0.000;2022-09-09T12:08:28;22.80;68.80
27016;DHT22;14557;0.000;0.000;2022-09-09T12:10:56;22.80;68.90
27016;DHT22;14557;0.000;0.000;2022-09-09T12:13:25;22.80;69.00
27016;DHT22;14557;0.000;0.000;2022-09-09T12:15:56;22.80;69.00
27016;DHT22;14557;0.000;0.000;2022-09-09T12:18:40;22.90;69.10
27016;DHT22;14557;0.000;0.000;2022-09-09T12:21:36;22.90;68.90
27016;DHT22;14557;0.000;0.000;2022-09-09T12:24:09;22.90;68.90
27016;DHT22;14557;0.000;0.000;2022-09-09T12:32:11;22.80;68.80
27016;DHT22;14557;0.000;0.000;2022-09-09T12:34:44;22.80;68.50
27016;DHT22;14557;0.000;0.000;2022-09-09T12:37:33;22.90;68.60
27016;DHT22;14557;0.000;0.000;2022-09-09T12:40:02;22.90;68.50
27016;DHT22;14557;0.000;0.000;2022-09-09T12:42:29;22.90;68.40
27016;DHT22;14557;0.000;0.000;2022-09-09T12:44:59;22.90;68.40
27016;DHT22;14557;0.000;0.000;2022-09-09T12:48:01;22.90;68.80
27016;DHT22;14557;0.000;0.000;2022-09-09T12:50:31;22.90;69.10
27016;DHT22;14557;0.000;0.000;2022-09-09T12:55:52;23.10;73.10
27016;DHT22;14557;0.000;0.000;2022-09-09T12:58:19;23.10;77.80
27016;DHT22;14557;0.000;0.000;2022-09-09T13:00:53;23.30;86.00
27016;DHT22;14557;0.000;0.000;2022-09-09T13:03:22;23.30;90.60
27016;DHT22;14557;0.000;0.000;2022-09-09T13:05:49;23.40;91.90
27016;DHT22;14557;0.000;0.000;2022-09-09T13:08:15;23.50;92.00
27016;DHT22;14557;0.000;0.000;2022-09-09T13:10:53;23.60;93.00
27016;DHT22;14557;0.000;0.000;2022-09-09T13:16:19;23.70;97.70
27016;DHT22;14557;0.000;0.000;2022-09-09T13:18:45;23.80;88.90
27016;DHT22;14557;0.000;0.000;2022-09-09T13:21:12;23.80;84.00
27016;DHT22;14557;0.000;0.000;2022-09-09T13:23:38;23.80;80.30
27016;DHT22;14557;0.000;0.000;2022-09-09T13:28:33;23.90;75.30
27016;DHT22;14557;0.000;0.000;2022-09-09T13:31:02;23.90;80.60
27016;DHT22;14557;0.000;0.000;2022-09-09T13:33:38;23.90;78.80
27016;DHT22;14557;0.000;0.000;2022-09-09T13:36:09;23.90;76.40
27016;DHT22;14557;0.000;0.000;2022-09-09T13:38:58;23.80;76.80
27016;DHT22;14557;0.000;0.000;2022-09-09T13:41:35;23.80;79.60
27016;DHT22;14557;0.000;0.000;2022-09-09T13:44:03;23.90;77.40
27016;DHT22;14557;0.000;0.000;2022-09-09T13:51:45;23.80;75.20
27016;DHT22;14557;0.000;0.000;2022-09-09T13:54:12;23.80;73.90
27016;DHT22;14557;0.000;0.000;2022-09-09T13:56:40;23.70;73.60
27016;DHT22;14557;0.000;0.000;2022-09-09T13:59:10;23.70;72.60
27016;DHT22;14557;0.000;0.000;2022-09-09T14:01:36;23.80;72.10
27016;DHT22;14557;0.000;0.000;2022-09-09T14:04:03;23.70;72.40
27016;DHT22;14557;0.000;0.000;2022-09-09T14:06:31;23.70;71.60
27016;DHT22;14557;0.000;0.000;2022-09-09T14:08:57;23.80;73.00
27016;DHT22;14557;0.000;0.000;2022-09-09T14:11:23;23.80;72.40
27016;DHT22;14557;0.000;0.000;2022-09-09T14:13:49;23.80;71.30
27016;DHT22;14557;0.000;0.000;2022-09-09T14:16:16;23.80;71.00
27016;DHT22;14557;0.000;0.000;2022-09-09T14:18:42;23.70;70.80
27016;DHT22;14557;0.000;0.000;2022-09-09T14:21:09;23.80;70.30
27016;DHT22;14557;0.000;0.000;2022-09-09T14:23:35;23.80;70.30
27016;DHT22;14557;0.000;0.000;2022-09-09T14:26:01;23.70;69.30
27016;DHT22;14557;0.000;0.000;2022-09-09T14:28:26;23.70;69.40
27016;DHT22;14557;0.000;0.000;2022-09-09T14:30:53;23.70;69.10
27016;DHT22;14557;0.000;0.000;2022-09-09T14:33:19;23.70;69.00
27016;DHT22;14557;0.000;0.000;2022-09-09T14:35:45;23.70;68.60
27016;DHT22;14557;0.000;0.000;2022-09-09T14:38:11;23.70;68.90
27016;DHT22;14557;0.000;0.000;2022-09-09T14:40:38;23.70;68.60
27016;DHT22;14557;0.000;0.000;2022-09-09T14:43:04;23.70;68.70
27016;DHT22;14557;0.000;0.000;2022-09-09T14:45:31;23.70;68.40
27016;DHT22;14557;0.000;0.000;2022-09-09T14:47:56;23.70;68.30
27016;DHT22;14557;0.000;0.000;2022-09-09T14:50:23;23.70;67.80
27016;DHT22;14557;0.000;0.000;2022-09-09T14:52:49;23.70;68.10
27016;DHT22;14557;0.000;0.000;2022-09-09T14:55:16;23.70;67.40
27016;DHT22;14557;0.000;0.000;2022-09-09T14:57:42;23.70;65.90
27016;DHT22;14557;0.000;0.000;2022-09-09T15:00:10;23.70;65.10
27016;DHT22;14557;0.000;0.000;2022-09-09T15:02:36;23.70;65.10
27016;DHT22;14557;0.000;0.000;2022-09-09T15:05:02;23.70;65.10
27016;DHT22;14557;0.000;0.000;2022-09-09T15:07:28;23.70;65.30
27016;DHT22;14557;0.000;0.000;2022-09-09T15:09:54;23.70;65.70
27016;DHT22;14557;0.000;0.000;2022-09-09T15:12:21;23.70;65.70
27016;DHT22;14557;0.000;0.000;2022-09-09T15:14:47;23.70;65.90
27016;DHT22;14557;0.000;0.000;2022-09-09T15:17:13;23.70;65.80
27016;DHT22;14557;0.000;0.000;2022-09-09T15:19:39;23.70;66.00
27016;DHT22;14557;0.000;0.000;2022-09-09T15:22:05;23.70;66.10
27016;DHT22;14557;0.000;0.000;2022-09-09T15:24:32;23.70;65.70
27016;DHT22;14557;0.000;0.000;2022-09-09T15:26:58;23.70;65.90
27016;DHT22;14557;0.000;0.000;2022-09-09T15:29:24;23.70;66.30
27016;DHT22;14557;0.000;0.000;2022-09-09T15:31:50;23.70;65.90
27016;DHT22;14557;0.000;0.000;2022-09-09T15:34:16;23.70;65.80
27016;DHT22;14557;0.000;0.000;2022-09-09T15:36:44;23.60;65.70
27016;DHT22;14557;0.000;0.000;2022-09-09T15:39:16;23.60;65.90
27016;DHT22;14557;0.000;0.000;2022-09-09T15:41:47;23.60;66.40
27016;DHT22;14557;0.000;0.000;2022-09-09T15:44:14;23.60;65.80
27016;DHT22;14557;0.000;0.000;2022-09-09T15:46:41;23.60;65.70
27016;DHT22;14557;0.000;0.000;2022-09-09T15:49:27;23.60;65.90
27016;DHT22;14557;0.000;0.000;2022-09-09T15:51:58;23.70;65.90
27016;DHT22;14557;0.000;0.000;2022-09-09T15:54:32;23.70;65.90
27016;DHT22;14557;0.000;0.000;2022-09-09T15:57:00;23.70;65.90
27016;DHT22;14557;0.000;0.000;2022-09-09T15:59:27;23.70;66.00
27016;DHT22;14557;0.000;0.000;2022-09-09T16:01:54;23.70;65.90
27016;DHT22;14557;0.000;0.000;2022-09-09T16:04:21;23.70;65.60
27016;DHT22;14557;0.000;0.000;2022-09-09T16:06:55;23.70;65.60
27016;DHT22;14557;0.000;0.000;2022-09-09T16:09:22;23.70;65.60
27016;DHT22;14557;0.000;0.000;2022-09-09T16:11:48;23.70;65.40
27016;DHT22;14557;0.000;0.000;2022-09-09T16:14:15;23.70;65.60
27016;DHT22;14557;0.000;0.000;2022-09-09T16:16:41;23.60;66.20
27016;DHT22;14557;0.000;0.000;2022-09-09T16:19:09;23.70;65.70
27016;DHT22;14557;0.000;0.000;2022-09-09T16:21:47;23.70;65.70
27016;DHT22;14557;0.000;0.000;2022-09-09T16:24:14;23.70;65.70
27016;DHT22;14557;0.000;0.000;2022-09-09T16:26:48;23.60;65.70
27016;DHT22;14557;0.000;0.000;2022-09-09T16:29:16;23.60;65.70
27016;DHT22;14557;0.000;0.000;2022-09-09T16:31:43;23.60;65.80
27016;DHT22;14557;0.000;0.000;2022-09-09T16:34:10;23.60;65.70
27016;DHT22;14557;0.000;0.000;2022-09-09T16:36:37;23.70;65.80
27016;DHT22;14557;0.000;0.000;2022-09-09T16:39:10;23.70;65.80
27016;DHT22;14557;0.000;0.000;2022-09-09T16:41:37;23.60;65.90
27016;DHT22;14557;0.000;0.000;2022-09-09T16:44:05;23.70;66.00
27016;DHT22;14557;0.000;0.000;2022-09-09T16:46:33;23.60;65.80
27016;DHT22;14557;0.000;0.000;2022-09-09T16:49:01;23.60;65.30
27016;DHT22;14557;0.000;0.000;2022-09-09T16:51:30;23.60;65.60
27016;DHT22;14557;0.000;0.000;2022-09-09T16:53:57;23.60;65.90
27016;DHT22;14557;0.000;0.000;2022-09-09T16:56:25;23.60;67.20
27016;DHT22;14557;0.000;0.000;2022-09-09T16:58:54;23.60;66.50
27016;DHT22;14557;0.000;0.000;2022-09-09T17:01:27;23.60;66.20
27016;DHT22;14557;0.000;0.000;2022-09-09T17:03:54;23.60;66.00
27016;DHT22;14557;0.000;0.000;2022-09-09T17:06:21;23.60;65.80
27016;DHT22;14557;0.000;0.000;2022-09-09T17:08:47;23.60;65.80
27016;DHT22;14557;0.000;0.000;2022-09-09T17:11:16;23.60;65.50
27016;DHT22;14557;0.000;0.000;2022-09-09T17:13:44;23.60;65.20
27016;DHT22;14557;0.000;0.000;2022-09-09T17:16:11;23.60;65.30
27016;DHT22;14557;0.000;0.000;2022-09-09T17:18:37;23.60;65.50
27016;DHT22;14557;0.000;0.000;2022-09-09T17:21:14;23.60;65.60
27016;DHT22;14557;0.000;0.000;2022-09-09T17:23:41;23.60;65.80
27016;DHT22;14557;0.000;0.000;2022-09-09T17:26:10;23.60;66.00
27016;DHT22;14557;0.000;0.000;2022-09-09T17:28:40;23.60;65.80
27016;DHT22;14557;0.000;0.000;2022-09-09T17:31:07;23.60;66.10
27016;DHT22;14557;0.000;0.000;2022-09-09T17:33:34;23.60;67.10
27016;DHT22;14557;0.000;0.000;2022-09-09T17:38:32;23.70;67.50
27016;DHT22;14557;0.000;0.000;2022-09-09T17:41:10;23.70;67.90
27016;DHT22;14557;0.000;0.000;2022-09-09T17:43:36;23.70;68.00
27016;DHT22;14557;0.000;0.000;2022-09-09T17:46:14;23.80;68.80
27016;DHT22;14557;0.000;0.000;2022-09-09T17:48:41;24.00;78.90
27016;DHT22;14557;0.000;0.000;2022-09-09T17:51:09;24.10;80.20
27016;DHT22;14557;0.000;0.000;2022-09-09T17:53:38;24.10;85.70
27016;DHT22;14557;0.000;0.000;2022-09-09T17:56:05;24.20;82.20
27016;DHT22;14557;0.000;0.000;2022-09-09T17:58:31;24.30;79.60
27016;DHT22;14557;0.000;0.000;2022-09-09T18:01:21;24.50;79.10
27016;DHT22;14557;0.000;0.000;2022-09-09T18:03:48;24.70;81.60